Time;durP1;ratioP1;P1;durP2;ratioP2;P2;SDS_P1;SDS_P2;PMS_P1;PMS_P2;Temp;Humidity;BMP_temperature;BMP_pressure;BME280_temperature;BME280_humidity;BME280_pressure;Samples;Min_cycle;Max_cycle;Signal;HPM_P1;HPM_P2
2022/06/20 00:03:55;;;;;;;10.68;8.60;;;;;;;;;;8333771;28;20056;-85
2022/06/20 00:08:01;;;;;;;9.82;7.20;;;;;;;;;;8333671;28;20045;-94
2022/06/20 00:12:06;;;;;;;13.27;7.72;;;;;;;;;;8332994;28;20045;-83
2022/06/20 00:16:13;;;;;;;15.40;7.75;;;;;;;;;;8332807;28;20052;-83
2022/06/20 00:20:16;;;;;;;13.23;8.00;;;;;;;;;;8333458;28;20060;-83
2022/06/20 00:24:19;;;;;;;15.60;8.65;;;;;;;;;;8332466;28;20500;-83
2022/06/20 00:28:23;;;;;;;11.52;7.38;;;;;;;;;;8332745;28;20045;-83
2022/06/20 00:32:25;;;;;;;14.95;7.68;;;;;;;;;;8331834;28;20045;-83
2022/06/20 00:36:28;;;;;;;10.07;6.45;;;;;;;;;;8332023;28;20053;-83
2022/06/20 00:40:35;;;;;;;8.90;6.30;;;;;;;;;;8332469;28;20041;-95
2022/06/20 00:44:43;;;;;;;8.75;5.80;;;;;;;;;;8332083;28;20041;-94
2022/06/20 00:48:49;;;;;;;8.68;5.60;;;;;;;;;;8332330;28;20045;-95
2022/06/20 00:52:57;;;;;;;9.85;5.88;;;;;;;;;;8332053;28;20064;-83
2022/06/20 00:57:03;;;;;;;8.02;5.78;;;;;;;;;;8332297;28;20072;-84
2022/06/20 01:01:11;;;;;;;10.32;5.65;;;;;;;;;;8331238;28;20046;-96
2022/06/20 01:05:18;;;;;;;7.85;5.40;;;;;;;;;;8331458;28;20046;-86
2022/06/20 01:09:25;;;;;;;10.32;5.63;;;;;;;;;;8331592;28;20037;-83
2022/06/20 01:13:28;;;;;;;10.50;6.45;;;;;;;;;;8331430;28;20046;-83
2022/06/20 01:17:37;;;;;;;13.07;6.50;;;;;;;;;;8331041;28;20053;-83
2022/06/20 01:21:40;;;;;;;8.20;5.60;;;;;;;;;;8331544;28;20072;-87
2022/06/20 01:25:56;;;;;;;7.70;4.65;;;;;;;;;;8330989;28;20072;-83
2022/06/20 01:30:00;;;;;;;8.40;6.43;;;;;;;;;;8330933;28;20038;-83
2022/06/20 01:34:03;;;;;;;9.05;6.38;;;;;;;;;;8330773;28;20063;-83
2022/06/20 01:38:08;;;;;;;11.85;6.47;;;;;;;;;;8331076;28;20474;-83
2022/06/20 01:42:23;;;;;;;7.90;5.47;;;;;;;;;;8330590;28;20046;-83
2022/06/20 01:46:30;;;;;;;6.82;5.20;;;;;;;;;;8330521;28;20049;-95
2022/06/20 01:50:35;;;;;;;11.10;5.75;;;;;;;;;;8319589;28;20045;-83
2022/06/20 01:54:41;;;;;;;8.70;5.75;;;;;;;;;;8330284;28;20041;-95
2022/06/20 01:58:47;;;;;;;13.50;6.55;;;;;;;;;;8330603;28;20519;-83
2022/06/20 02:02:54;;;;;;;9.18;6.47;;;;;;;;;;8330270;28;20042;-91
2022/06/20 02:06:56;;;;;;;10.50;6.57;;;;;;;;;;8329817;28;20041;-84
2022/06/20 02:11:05;;;;;;;8.38;6.07;;;;;;;;;;8329226;28;20052;-88
2022/06/20 02:15:14;;;;;;;8.98;6.05;;;;;;;;;;8320378;28;20045;-94
2022/06/20 02:19:25;;;;;;;10.05;6.47;;;;;;;;;;8324741;28;20045;-84
2022/06/20 02:23:31;;;;;;;14.20;7.18;;;;;;;;;;8327075;28;20049;-96
2022/06/20 02:27:39;;;;;;;8.70;6.80;;;;;;;;;;8312258;28;20401;-84
2022/06/20 02:31:41;;;;;;;17.45;12.02;;;;;;;;;;8325359;28;20224;-84
2022/06/20 02:35:46;;;;;;;12.45;8.43;;;;;;;;;;8328600;28;20053;-84
2022/06/20 02:39:51;;;;;;;10.48;6.97;;;;;;;;;;8326337;28;20107;-90
2022/06/20 02:43:59;;;;;;;13.27;7.97;;;;;;;;;;8317319;28;20073;-84
2022/06/20 02:48:05;;;;;;;14.73;8.90;;;;;;;;;;8330442;28;20064;-84
2022/06/20 02:52:14;;;;;;;11.75;7.63;;;;;;;;;;8328318;28;20061;-84
2022/06/20 02:56:21;;;;;;;9.65;6.80;;;;;;;;;;8331432;28;20063;-96
2022/06/20 03:00:30;;;;;;;13.65;6.68;;;;;;;;;;8335445;28;20045;-94
2022/06/20 03:04:35;;;;;;;9.30;6.07;;;;;;;;;;8336055;28;20432;-84
2022/06/20 03:08:40;;;;;;;12.80;7.07;;;;;;;;;;8335934;28;20068;-83
2022/06/20 03:12:43;;;;;;;16.77;8.40;;;;;;;;;;8335029;28;20120;-84
2022/06/20 03:16:45;;;;;;;9.98;6.97;;;;;;;;;;8333306;28;20042;-85
2022/06/20 03:20:48;;;;;;;9.45;7.07;;;;;;;;;;8332956;28;20064;-86
2022/06/20 03:24:53;;;;;;;9.95;6.35;;;;;;;;;;8332279;28;20042;-93
2022/06/20 03:28:56;;;;;;;11.93;6.80;;;;;;;;;;8330032;28;20504;-95
2022/06/20 03:33:00;;;;;;;8.35;6.18;;;;;;;;;;8331399;28;20041;-92
2022/06/20 03:37:06;;;;;;;7.95;6.07;;;;;;;;;;8333873;28;20543;-84
2022/06/20 03:41:13;;;;;;;8.02;6.50;;;;;;;;;;8334641;28;20417;-84
2022/06/20 03:45:17;;;;;;;12.27;7.28;;;;;;;;;;8334045;28;20056;-93
2022/06/20 03:49:23;;;;;;;11.70;7.55;;;;;;;;;;8334347;28;20048;-85
2022/06/20 03:53:34;;;;;;;11.65;6.90;;;;;;;;;;8334170;28;20485;-92
2022/06/20 03:57:41;;;;;;;10.63;7.30;;;;;;;;;;8333486;28;20049;-84
2022/06/20 04:01:51;;;;;;;13.20;7.70;;;;;;;;;;8332819;28;20099;-95
2022/06/20 04:06:00;;;;;;;9.95;7.00;;;;;;;;;;8333055;28;20057;-95
2022/06/20 04:14:33;;;;;;;11.75;7.80;;;;;;;;;;8333302;28;20046;-86
2022/06/20 04:18:41;;;;;;;14.25;8.30;;;;;;;;;;8333092;28;20049;-84
2022/06/20 04:22:46;;;;;;;9.75;7.50;;;;;;;;;;8327657;28;20060;-85
2022/06/20 04:26:54;;;;;;;17.27;11.38;;;;;;;;;;8332634;28;20049;-84
2022/06/20 04:31:03;;;;;;;15.98;8.88;;;;;;;;;;8332720;28;20069;-94
2022/06/20 04:35:14;;;;;;;10.02;6.95;;;;;;;;;;8332405;28;20053;-85
2022/06/20 04:39:23;;;;;;;6.95;6.13;;;;;;;;;;8332155;28;20041;-85
2022/06/20 04:43:33;;;;;;;9.73;6.13;;;;;;;;;;8331896;28;20054;-85
2022/06/20 04:47:41;;;;;;;7.70;5.65;;;;;;;;;;8331924;28;20042;-85
2022/06/20 04:51:48;;;;;;;12.35;4.47;;;;;;;;;;8332311;28;20531;-91
2022/06/20 04:55:54;;;;;;;6.38;5.10;;;;;;;;;;8332043;28;20042;-85
2022/06/20 05:00:00;;;;;;;9.48;5.15;;;;;;;;;;8332092;28;20049;-86
2022/06/20 05:04:09;;;;;;;9.05;4.82;;;;;;;;;;8330329;28;20080;-89
2022/06/20 05:08:16;;;;;;;9.82;4.65;;;;;;;;;;8321512;28;20076;-87
2022/06/20 05:12:22;;;;;;;7.93;4.45;;;;;;;;;;8331454;28;20053;-93
2022/06/20 05:16:31;;;;;;;12.98;4.50;;;;;;;;;;8315471;28;20050;-90
2022/06/20 05:20:43;;;;;;;8.23;4.57;;;;;;;;;;8329607;28;20065;-92
2022/06/20 05:24:50;;;;;;;10.18;4.65;;;;;;;;;;8327506;28;20049;-91
2022/06/20 05:28:58;;;;;;;6.55;4.40;;;;;;;;;;8328527;28;20094;-93
2022/06/20 05:33:14;;;;;;;8.05;4.03;;;;;;;;;;8321132;28;20049;-91
2022/06/20 05:37:33;;;;;;;8.77;4.68;;;;;;;;;;8330316;28;20072;-93
2022/06/20 05:41:39;;;;;;;10.88;5.80;;;;;;;;;;8317262;28;20464;-92
2022/06/20 05:45:53;;;;;;;9.38;5.32;;;;;;;;;;8319782;28;20053;-86
2022/06/20 05:50:05;;;;;;;11.25;5.13;;;;;;;;;;8329551;28;20060;-89
2022/06/20 05:54:27;;;;;;;7.53;5.15;;;;;;;;;;8324062;28;20052;-86
2022/06/20 06:04:33;;;;;;;9.95;5.30;;;;;;;;;;8324005;28;20477;-87
2022/06/20 06:08:46;;;;;;;7.90;5.47;;;;;;;;;;8327507;28;20087;-88
2022/06/20 06:12:57;;;;;;;6.95;5.03;;;;;;;;;;8329164;28;20288;-88
2022/06/20 06:17:07;;;;;;;10.15;5.10;;;;;;;;;;8329011;28;20049;-87
2022/06/20 06:21:10;;;;;;;9.70;5.03;;;;;;;;;;8328730;28;20455;-92
2022/06/20 06:25:24;;;;;;;9.05;5.00;;;;;;;;;;8324468;28;20053;-88
2022/06/20 06:29:36;;;;;;;12.73;5.30;;;;;;;;;;8331966;28;20049;-88
2022/06/20 06:33:47;;;;;;;8.95;4.63;;;;;;;;;;8334863;28;20132;-90
2022/06/20 06:37:55;;;;;;;9.70;4.55;;;;;;;;;;8333279;28;20042;-87
2022/06/20 06:42:02;;;;;;;9.70;4.93;;;;;;;;;;8335482;28;20440;-87
2022/06/20 06:46:22;;;;;;;8.85;4.20;;;;;;;;;;8335630;28;20037;-86
2022/06/20 06:50:32;;;;;;;9.63;4.10;;;;;;;;;;8349454;28;20133;-86
2022/06/20 06:54:53;;;;;;;7.72;4.05;;;;;;;;;;8336840;28;20489;-86
2022/06/20 06:59:02;;;;;;;9.70;4.40;;;;;;;;;;8335363;28;20048;-87
2022/06/20 07:03:14;;;;;;;9.13;4.38;;;;;;;;;;8335425;28;20413;-86
2022/06/20 07:07:21;;;;;;;9.00;4.07;;;;;;;;;;8348699;28;20064;-87
2022/06/20 07:11:27;;;;;;;11.65;4.32;;;;;;;;;;8335211;28;20451;-86
2022/06/20 07:15:31;;;;;;;11.88;4.45;;;;;;;;;;8348924;28;20132;-87
2022/06/20 07:19:38;;;;;;;10.27;4.78;;;;;;;;;;8333003;28;20053;-85
2022/06/20 07:23:45;;;;;;;9.30;4.38;;;;;;;;;;8321091;28;20368;-85
2022/06/20 07:27:52;;;;;;;8.38;4.07;;;;;;;;;;8320962;28;20038;-85
2022/06/20 07:32:01;;;;;;;9.40;3.88;;;;;;;;;;8330554;28;20048;-85
2022/06/20 07:36:11;;;;;;;9.25;4.40;;;;;;;;;;8332151;28;20041;-89
2022/06/20 07:40:24;;;;;;;8.95;3.78;;;;;;;;;;8343121;28;20095;-91
2022/06/20 07:44:31;;;;;;;9.15;3.90;;;;;;;;;;8331074;28;20059;-91
2022/06/20 07:48:38;;;;;;;10.80;4.45;;;;;;;;;;8339816;28;20093;-92
2022/06/20 07:52:52;;;;;;;16.73;5.20;;;;;;;;;;8336395;28;20041;-87
2022/06/20 07:57:00;;;;;;;13.60;4.68;;;;;;;;;;8336846;28;20102;-85
2022/06/20 08:01:08;;;;;;;15.75;5.13;;;;;;;;;;8336575;28;20056;-85
2022/06/20 08:05:16;;;;;;;13.95;5.75;;;;;;;;;;8332767;28;20076;-85
2022/06/20 08:09:23;;;;;;;12.15;6.03;;;;;;;;;;8333082;28;20050;-85
2022/06/20 08:13:33;;;;;;;15.63;7.47;;;;;;;;;;8332726;28;20104;-85
2022/06/20 08:17:37;;;;;;;18.90;8.15;;;;;;;;;;8327524;28;20056;-85
2022/06/20 08:21:47;;;;;;;11.57;4.90;;;;;;;;;;8323295;28;20054;-86
2022/06/20 08:25:57;;;;;;;39.45;26.13;;;;;;;;;;8322355;28;20076;-85
2022/06/20 08:30:11;;;;;;;14.23;7.63;;;;;;;;;;8322407;28;20046;-85
2022/06/20 08:34:22;;;;;;;10.90;5.53;;;;;;;;;;8312140;28;20050;-85
2022/06/20 08:38:32;;;;;;;9.77;4.80;;;;;;;;;;8336285;28;20148;-86
2022/06/20 08:43:07;;;;;;;14.45;5.63;;;;;;;;;;8332057;28;20053;-86
2022/06/20 08:48:11;;;;;;;10.82;4.13;;;;;;;;;;8332327;28;20241;-86
2022/06/20 08:52:57;;;;;;;10.75;4.25;;;;;;;;;;8319506;28;20075;-86
2022/06/20 08:57:06;;;;;;;;;;;;;;;;;;8323599;28;20405;-86
2022/06/20 09:01:22;;;;;;;8.67;3.20;;;;;;;;;;8324712;28;19921;-85
2022/06/20 09:05:56;;;;;;;11.05;4.88;;;;;;;;;;8335785;28;20057;-87
2022/06/20 09:10:26;;;;;;;11.30;5.00;;;;;;;;;;8326719;28;20119;-86
2022/06/20 09:15:03;;;;;;;11.32;3.67;;;;;;;;;;8340311;28;20060;-85
2022/06/20 09:19:21;;;;;;;7.18;3.40;;;;;;;;;;8339039;28;20045;-85
2022/06/20 09:23:45;;;;;;;9.75;3.78;;;;;;;;;;8301943;28;20062;-85
2022/06/20 09:28:02;;;;;;;13.75;5.38;;;;;;;;;;8339518;28;20041;-85
2022/06/20 09:32:25;;;;;;;10.15;4.30;;;;;;;;;;8338108;28;20136;-86
2022/06/20 09:36:51;;;;;;;10.88;3.50;;;;;;;;;;8326245;28;20048;-85
2022/06/20 09:40:59;;;;;;;26.90;13.32;;;;;;;;;;8325919;28;20064;-85
2022/06/20 09:45:23;;;;;;;12.87;4.47;;;;;;;;;;8322974;28;20045;-85
2022/06/20 09:49:42;;;;;;;9.25;4.40;;;;;;;;;;8327327;28;20303;-85
2022/06/20 09:54:01;;;;;;;13.60;5.10;;;;;;;;;;8322566;28;20060;-90
2022/06/20 09:58:13;;;;;;;11.90;4.63;;;;;;;;;;8320702;28;20089;-84
2022/06/20 10:02:26;;;;;;;10.30;4.20;;;;;;;;;;8313446;28;20100;-85
2022/06/20 10:06:45;;;;;;;18.50;10.63;;;;;;;;;;8354966;28;20049;-85
2022/06/20 10:10:57;;;;;;;8.07;4.13;;;;;;;;;;8305976;28;20060;-85
2022/06/20 10:15:09;;;;;;;9.48;4.75;;;;;;;;;;8345618;28;20081;-88
2022/06/20 10:19:21;;;;;;;33.75;13.23;;;;;;;;;;8333054;28;20494;-88
2022/06/20 10:23:43;;;;;;;28.17;6.78;;;;;;;;;;8320665;28;20486;-87
2022/06/20 10:27:54;;;;;;;13.90;6.15;;;;;;;;;;8335950;28;20053;-86
2022/06/20 10:32:10;;;;;;;11.90;4.85;;;;;;;;;;8308432;28;20068;-86
2022/06/20 10:36:23;;;;;;;23.10;7.63;;;;;;;;;;8337019;28;20050;-86
2022/06/20 10:40:34;;;;;;;14.40;5.70;;;;;;;;;;8339936;28;20500;-86
2022/06/20 10:45:00;;;;;;;11.50;5.88;;;;;;;;;;8337925;28;20049;-85
2022/06/20 10:49:37;;;;;;;42.30;13.93;;;;;;;;;;8326731;28;20065;-85
2022/06/20 10:53:57;;;;;;;8.18;4.90;;;;;;;;;;8335276;28;20485;-85
2022/06/20 10:58:28;;;;;;;10.23;5.13;;;;;;;;;;8325837;28;20469;-85
2022/06/20 11:02:53;;;;;;;10.15;5.20;;;;;;;;;;8306057;28;20041;-87
2022/06/20 11:07:15;;;;;;;9.35;5.38;;;;;;;;;;8335286;28;20045;-85
2022/06/20 11:11:32;;;;;;;8.80;5.93;;;;;;;;;;8337684;28;20584;-87
2022/06/20 11:15:45;;;;;;;12.82;6.45;;;;;;;;;;8317162;28;20477;-86
2022/06/20 11:20:01;;;;;;;11.95;6.38;;;;;;;;;;8322290;28;20045;-87
2022/06/20 11:24:29;;;;;;;8.60;5.75;;;;;;;;;;8312648;28;20052;-85
2022/06/20 11:28:53;;;;;;;12.07;5.05;;;;;;;;;;8321447;28;20053;-91
2022/06/20 11:38:46;;;;;;;9.13;4.90;;;;;;;;;;8271884;28;20057;-93
2022/06/20 11:43:35;;;;;;;11.52;5.13;;;;;;;;;;8327507;28;20045;-86
2022/06/20 11:48:22;;;;;;;12.25;4.72;;;;;;;;;;8324427;28;20053;-94
2022/06/20 11:52:58;;;;;;;7.88;4.80;;;;;;;;;;8330885;28;20047;-86
2022/06/20 11:57:23;;;;;;;8.50;4.20;;;;;;;;;;8337437;28;20164;-93
2022/06/20 12:01:50;;;;;;;9.18;4.35;;;;;;;;;;8331763;28;20046;-86
2022/06/20 12:06:12;;;;;;;6.15;4.53;;;;;;;;;;8316472;28;20045;-89
2022/06/20 12:10:27;;;;;;;;;;;;;;;;;;8319690;28;20414;-87
2022/06/20 12:15:22;;;;;;;10.60;6.53;;;;;;;;;;8307052;28;20352;-87
2022/06/20 12:24:37;;;;;;;10.77;4.18;;;;;;;;;;8310049;28;20049;-95
2022/06/20 12:29:00;;;;;;;10.18;4.07;;;;;;;;;;8329794;28;20079;-86
2022/06/20 12:33:44;;;;;;;11.60;5.20;;;;;;;;;;8345828;28;20056;-85
2022/06/20 12:38:13;;;;;;;8.38;4.28;;;;;;;;;;8263764;28;20188;-93
2022/06/20 12:42:54;;;;;;;9.98;5.00;;;;;;;;;;8245662;28;20054;-87
2022/06/20 12:48:06;;;;;;;8.80;5.10;;;;;;;;;;8247228;28;20053;-95
2022/06/20 12:53:10;;;;;;;17.77;6.72;;;;;;;;;;8257357;28;20141;-95
2022/06/20 12:58:02;;;;;;;17.88;5.93;;;;;;;;;;8276503;28;20046;-93
2022/06/20 13:02:35;;;;;;;10.77;6.60;;;;;;;;;;8234609;28;20046;-93
2022/06/20 13:07:25;;;;;;;17.38;7.63;;;;;;;;;;8256058;28;20058;-87
2022/06/20 13:12:27;;;;;;;13.75;8.85;;;;;;;;;;8256121;28;20125;-91
2022/06/20 13:17:21;;;;;;;17.15;9.45;;;;;;;;;;8248485;28;20055;-87
2022/06/20 13:21:40;;;;;;;24.63;10.30;;;;;;;;;;8256630;28;20201;-87
2022/06/20 13:26:05;;;;;;;15.93;9.60;;;;;;;;;;8241168;28;20050;-84
2022/06/20 13:31:00;;;;;;;12.82;8.38;;;;;;;;;;8247466;28;20050;-85
2022/06/20 13:35:52;;;;;;;14.60;8.00;;;;;;;;;;8258474;28;20100;-88
2022/06/20 13:40:49;;;;;;;12.82;7.35;;;;;;;;;;8303049;28;20048;-85
2022/06/20 13:45:39;;;;;;;12.48;7.63;;;;;;;;;;8298668;28;20053;-84
2022/06/20 13:50:09;;;;;;;11.73;7.82;;;;;;;;;;8305064;28;20754;-87
2022/06/20 13:54:27;;;;;;;12.63;7.75;;;;;;;;;;8301893;28;20124;-84
2022/06/20 14:04:34;;;;;;;12.10;7.70;;;;;;;;;;8313986;28;20042;-84
2022/06/20 14:13:45;;;;;;;13.05;7.93;;;;;;;;;;8322962;28;20053;-88
2022/06/20 14:18:39;;;;;;;10.88;8.50;;;;;;;;;;8327963;28;20123;-85
2022/06/20 14:23:03;;;;;;;13.68;7.72;;;;;;;;;;8328185;28;20041;-91
2022/06/20 14:27:42;;;;;;;12.10;8.27;;;;;;;;;;8318264;28;20054;-94
2022/06/20 14:32:19;;;;;;;11.55;8.90;;;;;;;;;;8328664;28;20045;-90
2022/06/20 14:37:49;;;;;;;12.93;8.57;;;;;;;;;;8307926;28;20066;-87
2022/06/20 14:42:43;;;;;;;12.20;7.00;;;;;;;;;;8330150;28;20083;-84
2022/06/20 14:47:28;;;;;;;12.05;8.13;;;;;;;;;;8312330;28;20092;-84
2022/06/20 14:51:49;;;;;;;9.95;7.00;;;;;;;;;;8324009;28;20053;-84
2022/06/20 14:56:42;;;;;;;8.65;6.20;;;;;;;;;;8307973;28;20484;-84
2022/06/20 15:01:11;;;;;;;10.63;7.20;;;;;;;;;;8325040;28;20045;-84
2022/06/20 15:05:34;;;;;;;11.77;8.10;;;;;;;;;;8325166;28;20045;-85
2022/06/20 15:09:43;;;;;;;9.80;6.63;;;;;;;;;;8342517;28;20057;-85
2022/06/20 15:13:53;;;;;;;11.23;7.40;;;;;;;;;;8326896;28;20088;-89
2022/06/20 15:18:11;;;;;;;14.63;8.65;;;;;;;;;;8329018;28;20043;-84
2022/06/20 15:22:26;;;;;;;10.40;6.57;;;;;;;;;;8323688;28;20037;-83
2022/06/20 15:26:33;;;;;;;11.68;6.93;;;;;;;;;;8333495;28;20048;-84
2022/06/20 15:30:44;;;;;;;11.55;5.82;;;;;;;;;;8320464;28;20053;-84
2022/06/20 15:34:50;;;;;;;8.50;4.20;;;;;;;;;;8326650;28;20053;-83
2022/06/20 15:39:05;;;;;;;10.00;4.25;;;;;;;;;;8336954;28;20050;-84
2022/06/20 15:43:17;;;;;;;7.68;3.88;;;;;;;;;;8333484;28;20468;-85
2022/06/20 15:47:26;;;;;;;;;;;;;;;;;;8348176;28;20407;-83
2022/06/20 15:51:43;;;;;;;6.40;3.20;;;;;;;;;;8347120;28;19924;-84
2022/06/20 15:56:21;;;;;;;8.15;3.10;;;;;;;;;;8302506;28;20500;-84
2022/06/20 16:00:38;;;;;;;6.90;2.78;;;;;;;;;;8319617;28;20065;-94
2022/06/20 16:04:51;;;;;;;6.50;3.38;;;;;;;;;;8332993;28;20038;-83
2022/06/20 16:09:04;;;;;;;6.63;3.03;;;;;;;;;;8340834;28;20049;-83
2022/06/20 16:13:13;;;;;;;6.07;3.20;;;;;;;;;;8338010;28;20052;-83
2022/06/20 16:17:29;;;;;;;6.63;3.50;;;;;;;;;;8347517;28;20064;-89
2022/06/20 16:21:45;;;;;;;6.68;3.00;;;;;;;;;;8350420;28;20079;-84
2022/06/20 16:26:02;;;;;;;7.03;3.20;;;;;;;;;;8309245;28;20053;-84
2022/06/20 16:30:22;;;;;;;6.22;3.22;;;;;;;;;;8326167;28;20602;-90
2022/06/20 16:34:46;;;;;;;6.82;3.40;;;;;;;;;;8324344;28;20516;-83
2022/06/20 16:38:55;;;;;;;6.82;3.25;;;;;;;;;;8317519;28;20057;-84
2022/06/20 16:43:07;;;;;;;8.65;3.70;;;;;;;;;;8326384;28;20045;-83
2022/06/20 16:47:24;;;;;;;5.18;3.20;;;;;;;;;;8302128;28;20045;-83
2022/06/20 16:52:06;;;;;;;5.85;3.50;;;;;;;;;;8319434;28;20053;-86
2022/06/20 16:56:28;;;;;;;5.63;3.20;;;;;;;;;;8329833;28;20045;-83
2022/06/20 17:00:56;;;;;;;7.72;3.42;;;;;;;;;;8338138;28;20075;-86
2022/06/20 17:05:13;;;;;;;10.80;3.70;;;;;;;;;;8346414;28;20053;-85
2022/06/20 17:09:18;;;;;;;;;;;;;;;;;;8326646;28;20490;-83
2022/06/20 17:13:50;;;;;;;9.02;4.10;;;;;;;;;;8325530;28;20292;-83
2022/06/20 17:18:03;;;;;;;11.65;4.43;;;;;;;;;;8330956;28;20528;-83
2022/06/20 17:22:17;;;;;;;8.38;4.35;;;;;;;;;;8331921;28;20045;-83
2022/06/20 17:26:33;;;;;;;8.93;4.63;;;;;;;;;;8324665;28;20057;-83
2022/06/20 17:30:45;;;;;;;8.23;4.50;;;;;;;;;;8327501;28;20049;-84
2022/06/20 17:34:53;;;;;;;9.20;4.30;;;;;;;;;;8323004;28;20049;-82
2022/06/20 17:39:07;;;;;;;10.30;4.85;;;;;;;;;;8324586;28;20058;-85
2022/06/20 17:43:21;;;;;;;11.93;4.88;;;;;;;;;;8328742;28;20482;-84
2022/06/20 17:47:35;;;;;;;8.73;4.15;;;;;;;;;;8328359;28;20053;-84
2022/06/20 17:51:46;;;;;;;9.63;4.60;;;;;;;;;;8323921;28;20058;-83
2022/06/20 17:56:00;;;;;;;16.13;5.18;;;;;;;;;;8324149;28;20069;-83
2022/06/20 18:00:09;;;;;;;9.25;4.30;;;;;;;;;;8309356;28;20046;-84
2022/06/20 18:04:37;;;;;;;7.90;3.97;;;;;;;;;;8314851;28;20042;-82
2022/06/20 18:08:52;;;;;;;6.65;4.05;;;;;;;;;;8325841;28;20405;-84
2022/06/20 18:13:20;;;;;;;12.25;4.30;;;;;;;;;;8313483;28;20042;-84
2022/06/20 18:17:59;;;;;;;8.20;4.95;;;;;;;;;;8311600;28;20049;-89
2022/06/20 18:22:54;;;;;;;8.65;5.35;;;;;;;;;;8296100;28;20069;-83
2022/06/20 18:27:10;;;;;;;9.07;5.35;;;;;;;;;;8310484;28;20405;-83
2022/06/20 18:31:20;;;;;;;9.82;5.25;;;;;;;;;;8335049;28;20409;-82
2022/06/20 18:35:26;;;;;;;12.57;5.57;;;;;;;;;;8336145;28;20053;-92
2022/06/20 18:39:28;;;;;;;10.98;5.47;;;;;;;;;;8335939;28;20486;-82
2022/06/20 18:43:43;;;;;;;12.73;5.88;;;;;;;;;;8336658;28;20485;-84
2022/06/20 18:48:03;;;;;;;12.10;6.28;;;;;;;;;;8336531;28;20045;-83
2022/06/20 18:52:23;;;;;;;10.20;5.97;;;;;;;;;;8336305;28;20161;-83
2022/06/20 18:56:42;;;;;;;12.10;7.03;;;;;;;;;;8335514;28;20052;-83
2022/06/20 19:01:01;;;;;;;17.13;7.63;;;;;;;;;;8335522;28;20061;-82
2022/06/20 19:05:40;;;;;;;16.10;8.00;;;;;;;;;;8335474;28;20084;-83
2022/06/20 19:10:12;;;;;;;12.52;8.50;;;;;;;;;;8336216;28;20050;-82
2022/06/20 19:14:36;;;;;;;12.05;8.13;;;;;;;;;;8336657;28;20046;-83
2022/06/20 19:19:22;;;;;;;13.43;8.23;;;;;;;;;;8334089;28;20424;-82
2022/06/20 19:23:43;;;;;;;12.32;7.30;;;;;;;;;;8335125;28;20141;-83
2022/06/20 19:27:52;;;;;;;16.73;9.15;;;;;;;;;;8335340;28;20057;-82
2022/06/20 19:31:59;;;;;;;13.15;10.23;;;;;;;;;;8339065;28;20162;-94
2022/06/20 19:36:12;;;;;;;16.08;11.07;;;;;;;;;;8335254;28;20477;-83
2022/06/20 19:40:24;;;;;;;15.90;11.63;;;;;;;;;;8336534;28;20076;-96
2022/06/20 19:44:32;;;;;;;17.75;11.70;;;;;;;;;;8335679;28;20440;-83
2022/06/20 19:48:39;;;;;;;16.45;10.85;;;;;;;;;;8336145;28;20049;-83
2022/06/20 19:52:54;;;;;;;14.65;10.57;;;;;;;;;;8335737;28;20052;-83
2022/06/20 19:57:14;;;;;;;11.95;7.45;;;;;;;;;;8339570;28;20053;-83
2022/06/20 20:01:45;;;;;;;9.98;7.28;;;;;;;;;;8340047;28;20095;-84
2022/06/20 20:05:53;;;;;;;14.82;7.30;;;;;;;;;;8339736;28;20037;-83
2022/06/20 20:09:59;;;;;;;12.80;7.00;;;;;;;;;;8335759;28;20041;-83
2022/06/20 20:14:06;;;;;;;12.95;6.65;;;;;;;;;;8339636;28;20550;-83
2022/06/20 20:18:35;;;;;;;8.85;5.68;;;;;;;;;;8337573;28;20050;-84
2022/06/20 20:22:48;;;;;;;13.82;6.93;;;;;;;;;;8335979;28;20469;-83
2022/06/20 20:27:22;;;;;;;14.15;6.53;;;;;;;;;;8334178;28;20049;-89
2022/06/20 20:31:31;;;;;;;10.40;5.57;;;;;;;;;;8335107;28;20053;-92
2022/06/20 20:35:56;;;;;;;9.50;5.45;;;;;;;;;;8334139;28;20056;-82
2022/06/20 20:40:15;;;;;;;6.45;4.30;;;;;;;;;;8317206;28;20075;-84
2022/06/20 20:44:42;;;;;;;5.70;4.30;;;;;;;;;;8333648;28;20413;-87
2022/06/20 20:48:50;;;;;;;6.75;5.00;;;;;;;;;;8335336;28;20405;-83
2022/06/20 20:52:58;;;;;;;9.43;4.80;;;;;;;;;;8334518;28;20045;-94
2022/06/20 20:57:06;;;;;;;8.80;4.22;;;;;;;;;;8333884;28;20481;-83
2022/06/20 21:01:15;;;;;;;10.57;3.95;;;;;;;;;;8332830;28;20467;-85
2022/06/20 21:05:22;;;;;;;5.65;3.25;;;;;;;;;;8332126;28;20052;-84
2022/06/20 21:09:29;;;;;;;8.20;3.45;;;;;;;;;;8332758;28;20053;-83
2022/06/20 21:13:37;;;;;;;9.63;3.40;;;;;;;;;;8333895;28;20084;-83
2022/06/20 21:18:01;;;;;;;10.18;3.05;;;;;;;;;;8331963;28;20049;-83
2022/06/20 21:22:07;;;;;;;6.05;3.63;;;;;;;;;;8332793;28;20417;-83
2022/06/20 21:26:12;;;;;;;11.38;2.67;;;;;;;;;;8331670;28;20041;-82
2022/06/20 21:30:17;;;;;;;8.70;3.00;;;;;;;;;;8331720;28;20481;-83
2022/06/20 21:34:28;;;;;;;9.73;2.88;;;;;;;;;;8332122;28;20120;-82
2022/06/20 21:38:31;;;;;;;4.47;2.28;;;;;;;;;;8332280;28;20405;-82
2022/06/20 21:42:37;;;;;;;3.95;2.33;;;;;;;;;;8331331;28;20477;-82
2022/06/20 21:46:43;;;;;;;4.97;2.22;;;;;;;;;;8331612;28;20045;-82
2022/06/20 21:50:51;;;;;;;3.15;2.00;;;;;;;;;;8331619;28;20131;-83
2022/06/20 21:54:58;;;;;;;4.40;2.67;;;;;;;;;;8331094;28;20124;-82
2022/06/20 21:59:03;;;;;;;3.70;2.20;;;;;;;;;;8333224;28;20041;-82
2022/06/20 22:07:32;;;;;;;2.85;1.98;;;;;;;;;;8337827;28;20054;-84
2022/06/20 22:11:40;;;;;;;3.10;2.03;;;;;;;;;;8337635;28;20075;-96
2022/06/20 22:15:48;;;;;;;3.92;1.90;;;;;;;;;;8337475;28;20041;-83
2022/06/20 22:19:51;;;;;;;3.70;2.13;;;;;;;;;;8339221;28;20050;-82
2022/06/20 22:24:17;;;;;;;3.58;2.13;;;;;;;;;;8341777;28;20397;-83
2022/06/20 22:28:30;;;;;;;3.28;2.35;;;;;;;;;;8339292;28;20507;-83
2022/06/20 22:32:40;;;;;;;2.80;2.10;;;;;;;;;;8337886;28;20076;-95
2022/06/20 22:36:45;;;;;;;4.20;2.50;;;;;;;;;;8337109;28;20045;-83
2022/06/20 22:40:53;;;;;;;3.13;2.15;;;;;;;;;;8338049;28;20095;-88
2022/06/20 22:44:57;;;;;;;3.90;2.22;;;;;;;;;;8337821;28;20045;-89
2022/06/20 22:49:03;;;;;;;7.90;2.97;;;;;;;;;;8336261;28;20057;-84
2022/06/20 22:53:09;;;;;;;5.78;3.38;;;;;;;;;;8338759;28;20045;-96
2022/06/20 22:57:16;;;;;;;6.22;2.92;;;;;;;;;;8337187;28;20045;-83
2022/06/20 23:01:26;;;;;;;4.20;3.13;;;;;;;;;;8337525;28;20041;-82
2022/06/20 23:05:33;;;;;;;5.15;3.65;;;;;;;;;;8336864;28;20042;-83
2022/06/20 23:09:36;;;;;;;6.28;3.60;;;;;;;;;;8336314;28;20060;-84
2022/06/20 23:13:41;;;;;;;11.55;5.22;;;;;;;;;;8337226;28;20050;-83
2022/06/20 23:22:14;;;;;;;6.50;4.05;;;;;;;;;;8337253;28;20045;-89
2022/06/20 23:26:20;;;;;;;4.40;3.35;;;;;;;;;;8335503;28;20041;-83
2022/06/20 23:30:26;;;;;;;4.18;3.00;;;;;;;;;;8335197;28;20049;-82
2022/06/20 23:34:32;;;;;;;4.32;3.20;;;;;;;;;;8335202;28;20412;-82
2022/06/20 23:38:41;;;;;;;6.47;2.50;;;;;;;;;;8336586;28;20421;-83
2022/06/20 23:42:43;;;;;;;4.55;2.53;;;;;;;;;;8327743;28;20050;-91
2022/06/20 23:46:47;;;;;;;3.80;2.20;;;;;;;;;;8331495;28;20125;-96
2022/06/20 23:50:50;;;;;;;4.85;2.58;;;;;;;;;;8343977;28;20099;-94
2022/06/20 23:54:53;;;;;;;5.03;2.33;;;;;;;;;;8322630;28;20057;-83
2022/06/20 23:58:56;;;;;;;2.35;2.00;;;;;;;;;;8335753;28;20115;-96
